Gure Gogoa — EAJC — position and weather

sailwx.info

Track history (hours):
 
Tides and Currents Weather Stations Pressure Air Temp Water Temp Dewpoint Dewpoint Depression Visibility Wind Speed Wind Dir Waves Ship Positions

Gure Gogoa

Last reported at 2018-Apr-19 08:22 UTC. Time now 2018-Apr-20 20:30 UTC.
Position N 44°24' W 001°46'.

Length 37 m.

Type: Fishing. MMSI: 224128930.

Date/timePositionNaut miles runAvg speedWind from/ knotsBaromVisibWave heightAir tempDewpointWater temp
2018-Apr-19 08:22N 44°24' W 001°46'410.5
2018-Apr-19 07:57N 44°28' W 001°45'510.6
2018-Apr-19 07:29N 44°33' W 001°44'5 7.6
2018-Apr-19 06:51N 44°38' W 001°42'0 0.6
2018-Apr-19 06:30N 44°38' W 001°42'0 0.6
2018-Apr-19 06:00N 44°38' W 001°42'0 0.5
2018-Apr-19 05:27N 44°38' W 001°41'0 0.5
2018-Apr-19 05:00N 44°38' W 001°41'0 0.1
2018-Apr-19 04:30N 44°38' W 001°41'2 4.2
2018-Apr-19 04:00N 44°38' W 001°44'2 2.8
2018-Apr-19 03:25N 44°39' W 001°45'2 2.2
2018-Apr-19 02:36N 44°39' W 001°48'0 0.5
2018-Apr-19 02:22N 44°39' W 001°48'0 0.4
2018-Apr-19 01:59N 44°39' W 001°48'0 0.7
2018-Apr-19 01:28N 44°39' W 001°49'11 0.6
2018-Apr-18 05:41N 44°28' W 001°49'1 1.3
2018-Apr-18 04:38N 44°29' W 001°51'6 2.6
2018-Apr-18 02:18N 44°23' W 001°54'4 7.7
2018-Apr-18 01:47N 44°27' W 001°53'2 7.9
2018-Apr-18 01:30N 44°29' W 001°51'2 2.2
2018-Apr-18 00:38N 44°30' W 001°49'0 1.0
2018-Apr-18 00:28N 44°30' W 001°50'1 1.0
2018-Apr-17 23:03N 44°30' W 001°48'010.2
2018-Apr-17 23:00N 44°30' W 001°47'  
2018-Apr-11 03:00N 43°31' W 001°42'  
Track history (hours):
 
Tides and Currents Weather Stations Pressure Air Temp Water Temp Dewpoint Dewpoint Depression Visibility Wind Speed Wind Dir Waves Ship Positions

Gure Gogoa

Last reported at 2018-Apr-19 08:22 UTC. Time now 2018-Apr-20 20:30 UTC.
Position N 44°24' W 001°46'.

Length 37 m.

Type: Fishing. MMSI: 224128930.

Date/timePositionNaut miles runAvg speedWind from/ knotsBaromVisibWave heightAir tempDewpointWater temp
2018-Apr-19 08:22N 44°24' W 001°46'410.5
2018-Apr-19 07:57N 44°28' W 001°45'510.6
2018-Apr-19 07:29N 44°33' W 001°44'5 7.6
2018-Apr-19 06:51N 44°38' W 001°42'0 0.6
2018-Apr-19 06:30N 44°38' W 001°42'0 0.6
2018-Apr-19 06:00N 44°38' W 001°42'0 0.5
2018-Apr-19 05:27N 44°38' W 001°41'0 0.5
2018-Apr-19 05:00N 44°38' W 001°41'0 0.1
2018-Apr-19 04:30N 44°38' W 001°41'2 4.2
2018-Apr-19 04:00N 44°38' W 001°44'2 2.8
2018-Apr-19 03:25N 44°39' W 001°45'2 2.2
2018-Apr-19 02:36N 44°39' W 001°48'0 0.5
2018-Apr-19 02:22N 44°39' W 001°48'0 0.4
2018-Apr-19 01:59N 44°39' W 001°48'0 0.7
2018-Apr-19 01:28N 44°39' W 001°49'11 0.6
2018-Apr-18 05:41N 44°28' W 001°49'1 1.3
2018-Apr-18 04:38N 44°29' W 001°51'6 2.6
2018-Apr-18 02:18N 44°23' W 001°54'4 7.7
2018-Apr-18 01:47N 44°27' W 001°53'2 7.9
2018-Apr-18 01:30N 44°29' W 001°51'2 2.2
2018-Apr-18 00:38N 44°30' W 001°49'0 1.0
2018-Apr-18 00:28N 44°30' W 001°50'1 1.0
2018-Apr-17 23:03N 44°30' W 001°48'010.2
2018-Apr-17 23:00N 44°30' W 001°47'  
2018-Apr-11 03:00N 43°31' W 001°42'  

Dump ship's entire track history